Terminal Aerodrome Forecast
Issued by NWS

Home | Current Version | Previous Version | Text Only | Print | Product List | Glossary On
Versions: 1 2 3 4 5 6 7 8 9 10 11 12 13 14
000
FTUS42 TJSJ 272357
TAFIST
TAF
TIST 272357Z 2800/2824 10025G35KT P6SM SHRA BKN022 BKN040
      TEMPO 2802/2806 VRB30G50KT 3SM +TSRA OVC020CB
     FM280600 12015G30KT 5SM TSRA BKN020CB OVC050
     FM281700 15012G20KT P6SM VCTS BKN030CB BKN060
     FM282200 18011G15KT P6SM VCTS SCT020CB BKN060=

USA.gov is the U.S. government's official web portal to all federal, state and local government web resources and services.